Tampa, Florida
Traffic Map
Current Weather Conditions
Tampa, Florida
Broken Clouds
Broken Clouds
82°
Feels Like: 86°
Wind Chill: 82° Ceiling: 6000
Heat Index: 86° Visibility: 10mi
Dew Point: 70° Wind: 5mph
Humidity: 67% Direction: 190° (S)
Pressure: 30.05in Gusts: 0mph
Raw Report DataKTPA 010053Z 19004KT 10SM BKN060 BKN250 28/21 A3005 RMK AO2 SLP176 T02780211
Traffic Incident Summary
Active as of:
Severity:
Category:
InformationThere was an issue retrieving the traffic information for this location. Please try a different location or try again shortly.
Advertisements
Track Severe Weather on mobile